KDBN/DBN METAR and TAF weather

Enter ICAO airport designator
Station Type Date Time Source
KDBN METAR 2019/04/19 22:55 UTC NOAA

KDBN 192255Z AUTO 27017G24KT 10SM SCT038 SCT046 SCT065 17/10 A2960 RMK AO2


Station Type Date Time Source
KDBN Decoded METAR 2019/04/19 22:55 UTC NOAA

Dublin, W H 'Bud' Barron Airport, GA, United States (KDBN) 32-33-52N 082-59-06W
Apr 19, 2019 - 06:55 PM EDT / 2019.04.19 2255 UTC
Wind: from the W (270 degrees) at 20 MPH (17 KT) gusting to 28 MPH (24 KT):0
Visibility: 10 mile(s):0
Sky conditions: partly cloudy
Temperature: 62 F (17 C)
Dew Point: 50 F (10 C)
Relative Humidity: 63%
Pressure (altimeter): 29.6 in. Hg (1002 hPa)
ob: KDBN 192255Z AUTO 27017G24KT 10SM SCT038 SCT046 SCT065 17/10 A2960 RMK AO2
cycle: 23

Station Type Date Time Source
KDBN TAF UTC NOAA

Error!

Example: see airport list